Time;durP1;ratioP1;P1;durP2;ratioP2;P2;SDS_P1;SDS_P2;PMS_P1;PMS_P2;Temp;Humidity;BMP_temperature;BMP_pressure;BME280_temperature;BME280_humidity;BME280_pressure;Samples;Min_cycle;Max_cycle;Signal;HPM_P1;HPM_P2
2023/09/04 00:00:59;;;;;;;0.60;0.60;;;;;;;17.99;69.06;100395.72;5096155;28;20051;-67
2023/09/04 00:03:28;;;;;;;0.60;0.60;;;;;;;17.95;69.19;100394.91;5096091;28;20036;-67
2023/09/04 00:05:58;;;;;;;0.75;0.60;;;;;;;17.94;69.28;100387.19;5096072;28;20043;-66
2023/09/04 00:08:27;;;;;;;0.82;0.60;;;;;;;17.93;69.45;100385.47;5096040;28;20048;-66
2023/09/04 00:10:56;;;;;;;0.55;0.55;;;;;;;17.93;69.47;100383.75;5095837;28;20119;-65
2023/09/04 00:13:25;;;;;;;0.40;0.40;;;;;;;17.92;69.39;100381.22;5095925;28;20523;-67
2023/09/04 00:15:56;;;;;;;0.65;0.57;;;;;;;17.93;69.36;100375.16;5095868;28;20284;-67
2023/09/04 00:18:25;;;;;;;5.65;2.50;;;;;;;17.96;69.25;100365.63;5095860;28;20047;-66
2023/09/04 00:20:54;;;;;;;1.23;1.13;;;;;;;17.97;68.75;100366.47;5095768;28;20044;-67
2023/09/04 00:23:25;;;;;;;18.38;1.25;;;;;;;18.02;68.53;100367.22;5095594;28;20046;-66
2023/09/04 00:25:54;;;;;;;0.65;0.65;;;;;;;18.03;68.47;100367.19;5096016;28;20131;-66
2023/09/04 00:28:23;;;;;;;0.52;0.52;;;;;;;18.06;68.23;100371.47;5095682;27;20050;-67
2023/09/04 00:30:52;;;;;;;;;;;;;;;18.02;68.29;100374.97;5095876;28;20051;-66
2023/09/04 00:33:21;;;;;;;1.02;0.60;;;;;;;17.98;68.61;100357.81;5093992;28;19926;-67
2023/09/04 00:35:50;;;;;;;0.68;0.68;;;;;;;17.96;68.68;100364.75;5094531;28;20044;-67
2023/09/04 00:38:18;;;;;;;1.85;1.40;;;;;;;17.95;68.99;100363.03;5094236;28;20544;-66
2023/09/04 00:40:49;;;;;;;0.90;0.90;;;;;;;17.89;69.09;100360.59;5095390;28;20058;-67
2023/09/04 00:43:18;;;;;;;0.50;0.50;;;;;;;17.82;69.39;100366.75;5094450;28;20511;-66
2023/09/04 00:45:47;;;;;;;0.50;0.50;;;;;;;17.72;69.29;100365.22;5095572;28;20090;-67
2023/09/04 00:48:16;;;;;;;;;;;;;;;17.65;69.41;100366.22;5094528;28;20048;-66
2023/09/04 00:50:45;;;;;;;0.90;0.60;;;;;;;17.64;69.58;100373.13;5095115;28;20014;-66
2023/09/04 00:53:15;;;;;;;0.50;0.50;;;;;;;17.65;69.58;100372.25;5093983;28;20351;-67
2023/09/04 00:55:45;;;;;;;0.95;0.95;;;;;;;17.67;69.71;100373.06;5095095;28;20051;-66
2023/09/04 00:58:16;;;;;;;0.73;0.73;;;;;;;17.69;69.67;100376.47;5095107;28;20097;-67
2023/09/04 01:00:45;;;;;;;0.40;0.40;;;;;;;17.65;69.64;100369.66;5095130;28;20040;-66
2023/09/04 01:03:14;;;;;;;;;;;;;;;17.66;69.77;100380.84;5095374;28;20067;-66
2023/09/04 01:05:43;;;;;;;0.98;0.75;;;;;;;17.62;69.85;100374.03;5095187;28;19955;-66
2023/09/04 01:08:16;;;;;;;0.80;0.68;;;;;;;17.57;69.80;100373.25;5094846;28;20495;-66
2023/09/04 01:10:53;;;;;;;0.60;0.60;;;;;;;17.56;69.84;100379.31;5094722;28;20048;-65
2023/09/04 01:13:29;;;;;;;0.60;0.60;;;;;;;17.56;69.59;100368.97;5095017;28;20040;-65
2023/09/04 01:16:00;;;;;;;0.50;0.50;;;;;;;17.59;69.73;100368.94;5094710;28;20064;-68
2023/09/04 01:18:31;;;;;;;0.63;0.60;;;;;;;17.62;69.36;100363.69;5094664;28;20551;-66
2023/09/04 01:21:03;;;;;;;0.70;0.70;;;;;;;17.63;69.22;100366.25;5094614;28;20040;-67
2023/09/04 01:23:33;;;;;;;0.60;0.60;;;;;;;17.61;69.31;100362.84;5094862;28;20058;-66
2023/09/04 01:26:12;;;;;;;0.73;0.73;;;;;;;17.65;69.15;100361.06;5094524;28;20135;-67
2023/09/04 01:28:55;;;;;;;0.88;0.80;;;;;;;17.62;69.14;100364.56;5094473;28;20044;-66
2023/09/04 01:31:31;;;;;;;1.08;0.80;;;;;;;17.65;69.23;100358.47;5094382;28;20051;-66
2023/09/04 01:34:08;;;;;;;0.68;0.60;;;;;;;17.59;69.26;100363.78;5094092;28;20131;-66
2023/09/04 01:36:40;;;;;;;0.60;0.60;;;;;;;17.60;69.31;100370.63;5094334;28;20487;-66
2023/09/04 01:39:09;;;;;;;0.73;0.65;;;;;;;17.59;69.20;100379.25;5093095;28;20126;-65
2023/09/04 01:41:39;;;;;;;1.30;0.95;;;;;;;17.58;69.21;100387.88;5094501;28;20044;-66
2023/09/04 01:44:08;;;;;;;0.65;0.65;;;;;;;17.57;69.05;100386.16;5093294;28;20082;-66
2023/09/04 01:46:36;;;;;;;0.50;0.50;;;;;;;17.57;69.24;100387.00;5092945;28;20040;-66
2023/09/04 01:49:05;;;;;;;0.50;0.50;;;;;;;17.57;69.18;100401.66;5094375;28;20043;-66
2023/09/04 01:51:36;;;;;;;1.00;0.90;;;;;;;17.61;69.40;100406.72;5094309;28;20061;-66
2023/09/04 01:54:07;;;;;;;;;;;;;;;17.58;69.37;100403.38;5092917;28;20036;-66
2023/09/04 01:56:36;;;;;;;0.57;0.57;;;;;;;17.55;69.35;100399.09;5092784;28;19920;-66
2023/09/04 01:59:05;;;;;;;0.77;0.55;;;;;;;17.57;69.18;100414.56;5093066;28;20040;-66
2023/09/04 02:01:35;;;;;;;;;;;;;;;17.55;69.42;100408.56;5093179;28;20044;-66
2023/09/04 02:04:05;;;;;;;0.55;0.55;;;;;;;17.56;69.54;100416.31;5094221;28;20010;-66
2023/09/04 02:06:34;;;;;;;0.47;0.47;;;;;;;17.59;69.55;100411.06;5092745;28;20048;-66
2023/09/04 02:09:04;;;;;;;0.53;0.53;;;;;;;17.58;69.70;100405.94;5094066;28;20040;-66
2023/09/04 02:11:34;;;;;;;3.03;1.23;;;;;;;17.58;69.79;100418.84;5092561;28;20051;-66
2023/09/04 02:14:03;;;;;;;1.23;1.13;;;;;;;17.60;69.59;100417.94;5092891;28;20044;-66
2023/09/04 02:16:33;;;;;;;0.95;0.73;;;;;;;17.59;69.70;100418.00;5093347;28;20415;-66
2023/09/04 02:19:02;;;;;;;0.60;0.60;;;;;;;17.60;69.80;100422.25;5093639;28;20070;-66
2023/09/04 02:21:32;;;;;;;0.77;0.77;;;;;;;17.56;69.94;100420.63;5093707;28;20074;-66
2023/09/04 02:24:01;;;;;;;1.00;0.95;;;;;;;17.57;69.76;100424.88;5092476;28;20514;-66
2023/09/04 02:26:30;;;;;;;0.50;0.50;;;;;;;17.58;69.76;100429.19;5092378;28;20049;-66
2023/09/04 02:29:01;;;;;;;0.65;0.65;;;;;;;17.53;69.88;100421.50;5093410;28;20123;-67
2023/09/04 02:31:30;;;;;;;1.83;1.17;;;;;;;17.49;70.15;100419.84;5092411;28;20091;-66
2023/09/04 02:33:59;;;;;;;0.57;0.50;;;;;;;17.50;70.13;100415.50;5093289;28;20055;-66
2023/09/04 02:36:27;;;;;;;0.67;0.67;;;;;;;17.53;70.13;100420.66;5092304;28;20411;-66
2023/09/04 02:38:56;;;;;;;0.60;0.60;;;;;;;17.52;70.24;100418.94;5093429;28;20399;-66
2023/09/04 02:41:25;;;;;;;1.13;1.02;;;;;;;17.49;70.26;100418.97;5092308;28;20044;-65
2023/09/04 02:43:54;;;;;;;1.70;1.17;;;;;;;17.49;70.54;100408.66;5093452;28;20504;-65
2023/09/04 02:46:25;;;;;;;1.15;0.95;;;;;;;17.51;70.38;100406.91;5093439;28;20329;-65
2023/09/04 02:48:54;;;;;;;0.50;0.50;;;;;;;17.51;70.17;100401.72;5093642;28;20117;-66
2023/09/04 02:51:23;;;;;;;1.17;1.08;;;;;;;17.53;70.14;100410.34;5093322;28;20059;-66
2023/09/04 02:53:52;;;;;;;1.13;1.02;;;;;;;17.56;70.15;100410.28;5093678;28;20131;-66
2023/09/04 02:56:21;;;;;;;0.45;0.45;;;;;;;17.56;69.96;100410.28;5092309;28;20135;-67
2023/09/04 02:58:50;;;;;;;0.70;0.70;;;;;;;17.55;70.04;100403.41;5093259;28;20063;-66
2023/09/04 03:01:19;;;;;;;0.60;0.60;;;;;;;17.56;69.91;100400.81;5093300;28;20312;-66
2023/09/04 03:03:49;;;;;;;0.60;0.60;;;;;;;17.57;69.90;100406.81;5093302;28;20303;-66
2023/09/04 03:06:18;;;;;;;0.88;0.77;;;;;;;17.55;69.93;100403.41;5097277;28;20105;-66
2023/09/04 03:08:47;;;;;;;0.85;0.85;;;;;;;17.56;69.98;100399.97;5097179;28;20040;-66
2023/09/04 03:11:16;;;;;;;0.68;0.60;;;;;;;17.56;70.06;100402.53;5097239;28;20398;-66
2023/09/04 03:13:45;;;;;;;0.75;0.75;;;;;;;17.54;69.99;100402.56;5095963;28;20105;-66
2023/09/04 03:16:14;;;;;;;1.70;1.58;;;;;;;17.54;69.95;100412.06;5095904;28;20044;-66
2023/09/04 03:18:44;;;;;;;0.95;0.60;;;;;;;17.56;69.68;100399.97;5097051;28;20086;-67
2023/09/04 03:21:15;;;;;;;1.73;1.10;;;;;;;17.58;69.70;100408.53;5095963;28;20055;-66
2023/09/04 03:23:46;;;;;;;0.80;0.80;;;;;;;17.58;69.66;100398.19;5095779;28;20522;-66
2023/09/04 03:26:15;;;;;;;4.13;1.42;;;;;;;17.59;69.40;100402.50;5096830;28;20044;-67
2023/09/04 03:28:44;;;;;;;1.00;0.88;;;;;;;17.58;69.38;100408.53;5095645;28;20044;-66
2023/09/04 03:31:15;;;;;;;1.33;1.05;;;;;;;17.58;69.33;100406.81;5096930;28;20448;-66
2023/09/04 03:33:46;;;;;;;0.88;0.77;;;;;;;17.59;69.17;100413.66;5096438;28;20056;-66
2023/09/04 03:36:16;;;;;;;1.42;1.13;;;;;;;17.61;69.34;100413.66;5095337;28;20040;-67
2023/09/04 03:38:45;;;;;;;1.73;0.98;;;;;;;17.65;69.10;100415.28;5095434;28;20127;-66
2023/09/04 03:41:14;;;;;;;0.60;0.60;;;;;;;17.65;68.99;100416.16;5096522;28;20044;-66
2023/09/04 03:43:43;;;;;;;1.10;1.00;;;;;;;17.70;68.87;100419.50;5096742;28;20088;-67
2023/09/04 03:46:14;;;;;;;1.75;0.82;;;;;;;17.73;69.01;100422.00;5096733;28;20372;-67
2023/09/04 03:48:43;;;;;;;0.70;0.70;;;;;;;17.72;68.96;100419.47;5095417;28;20506;-66
2023/09/04 03:51:12;;;;;;;0.63;0.63;;;;;;;17.75;68.77;100422.84;5096217;28;20051;-67
2023/09/04 03:53:42;;;;;;;1.00;0.90;;;;;;;17.76;68.90;100436.59;5096183;28;20068;-67
2023/09/04 03:56:11;;;;;;;0.40;0.40;;;;;;;17.76;68.93;100431.44;5096348;28;20086;-67
2023/09/04 03:58:40;;;;;;;0.83;0.83;;;;;;;17.74;69.40;100435.78;5096188;28;20426;-66
2023/09/04 04:01:09;;;;;;;0.80;0.80;;;;;;;17.74;69.73;100446.09;5096126;28;20273;-67
2023/09/04 04:03:38;;;;;;;0.60;0.60;;;;;;;17.72;69.74;100447.88;5094880;28;20050;-67
2023/09/04 04:06:14;;;;;;;0.73;0.70;;;;;;;17.66;69.57;100455.72;5096696;28;20044;-67
2023/09/04 04:08:45;;;;;;;1.08;0.73;;;;;;;17.58;70.04;100463.59;5096097;28;20044;-67
2023/09/04 04:11:15;;;;;;;0.90;0.80;;;;;;;17.50;70.93;100462.81;5095944;28;20066;-67
2023/09/04 04:13:44;;;;;;;0.80;0.80;;;;;;;17.44;71.20;100462.94;5096337;28;20517;-66
2023/09/04 04:16:13;;;;;;;0.50;0.50;;;;;;;17.44;71.58;100465.53;5095512;28;20078;-66
2023/09/04 04:18:42;;;;;;;2.17;1.40;;;;;;;17.46;71.79;100470.66;5094615;28;20048;-66
2023/09/04 04:21:12;;;;;;;0.90;0.60;;;;;;;17.44;72.28;100478.44;5094786;28;20123;-66
2023/09/04 04:23:41;;;;;;;0.82;0.82;;;;;;;17.34;72.73;100475.16;5094830;28;20054;-66
2023/09/04 04:26:15;;;;;;;1.42;1.10;;;;;;;17.38;72.85;100473.34;5095620;28;20055;-66
2023/09/04 04:28:44;;;;;;;0.88;0.88;;;;;;;17.37;72.70;100479.41;5095551;28;20048;-66
2023/09/04 04:31:13;;;;;;;1.02;0.93;;;;;;;17.40;73.10;100480.19;5094305;28;20036;-67
2023/09/04 04:33:43;;;;;;;0.80;0.80;;;;;;;17.34;72.74;100488.03;5093993;28;20051;-67
2023/09/04 04:36:12;;;;;;;1.02;0.95;;;;;;;17.32;72.63;100494.09;5096532;28;20036;-67
2023/09/04 04:38:41;;;;;;;1.00;0.95;;;;;;;17.30;72.44;100483.78;5094246;28;20070;-66
2023/09/04 04:41:10;;;;;;;4.60;0.90;;;;;;;17.39;72.09;100487.97;5095317;28;20119;-66
2023/09/04 04:43:42;;;;;;;0.98;0.77;;;;;;;17.37;72.24;100482.81;5095243;27;20375;-67
2023/09/04 04:46:15;;;;;;;0.80;0.80;;;;;;;17.36;72.25;100481.13;5095514;28;20051;-66
2023/09/04 04:48:44;;;;;;;1.05;0.95;;;;;;;17.34;72.76;100488.03;5094041;28;20048;-67
2023/09/04 04:51:13;;;;;;;0.60;0.60;;;;;;;17.37;72.44;100484.56;5095307;28;20498;-66
2023/09/04 04:53:42;;;;;;;0.50;0.50;;;;;;;17.36;72.69;100496.59;5095477;28;20284;-66
2023/09/04 04:56:11;;;;;;;1.60;1.50;;;;;;;17.36;72.86;100491.44;5093852;28;20036;-67
2023/09/04 04:58:42;;;;;;;1.10;1.00;;;;;;;17.37;73.13;100498.28;5093821;28;20268;-67
2023/09/04 05:01:11;;;;;;;1.85;1.10;;;;;;;17.38;72.93;100496.56;5094079;28;20448;-66
2023/09/04 05:03:40;;;;;;;2.33;0.85;;;;;;;17.44;72.91;100497.31;5093697;28;20048;-67
2023/09/04 05:06:09;;;;;;;0.87;0.83;;;;;;;17.49;72.67;100496.41;5095690;28;20559;-66
2023/09/04 05:08:38;;;;;;;;;;;;;;;17.53;72.22;100500.69;5094459;28;20272;-66
2023/09/04 05:11:07;;;;;;;1.35;1.05;;;;;;;17.58;72.22;100483.41;5094809;28;19967;-67
2023/09/04 05:13:39;;;;;;;1.35;1.15;;;;;;;17.61;71.99;100496.25;5094764;28;20044;-66
2023/09/04 05:16:10;;;;;;;;;;;;;;;17.63;71.81;100495.34;5094182;28;20566;-67
2023/09/04 05:18:40;;;;;;;1.35;0.70;;;;;;;17.70;71.79;100503.84;5094694;28;19920;-67
2023/09/04 05:21:09;;;;;;;0.98;0.88;;;;;;;17.72;71.66;100509.84;5093495;28;20098;-67
2023/09/04 05:23:38;;;;;;;1.00;0.90;;;;;;;17.72;71.58;100505.53;5093386;28;20056;-67
2023/09/04 05:26:09;;;;;;;0.80;0.75;;;;;;;17.77;71.87;100502.88;5093243;28;20036;-67
2023/09/04 05:28:38;;;;;;;1.75;0.80;;;;;;;17.83;71.77;100507.91;5092591;28;20097;-67
2023/09/04 05:31:09;;;;;;;0.67;0.67;;;;;;;17.84;71.77;100509.63;5094420;28;20044;-67
2023/09/04 05:33:38;;;;;;;4.45;0.80;;;;;;;17.90;71.50;100506.97;5094166;28;20408;-67
2023/09/04 05:36:08;;;;;;;0.70;0.70;;;;;;;17.95;71.31;100510.28;5094231;28;20040;-67
2023/09/04 05:38:38;;;;;;;1.55;1.40;;;;;;;18.06;71.08;100517.00;5094347;28;20064;-67
2023/09/04 05:41:07;;;;;;;1.38;1.13;;;;;;;18.17;71.01;100516.78;5094555;28;20162;-67
2023/09/04 05:43:36;;;;;;;0.60;0.60;;;;;;;18.34;70.67;100512.16;5094451;28;20055;-67
2023/09/04 05:46:05;;;;;;;1.27;1.15;;;;;;;18.46;70.01;100505.94;5094025;28;20047;-68
2023/09/04 05:48:36;;;;;;;0.50;0.50;;;;;;;18.59;69.49;100505.69;5094137;28;20047;-67
2023/09/04 05:51:05;;;;;;;3.80;0.98;;;;;;;18.73;69.07;100510.56;5094416;28;20048;-66
2023/09/04 05:53:33;;;;;;;0.90;0.80;;;;;;;18.87;68.84;100508.53;5093942;28;20040;-67
2023/09/04 05:56:06;;;;;;;0.73;0.73;;;;;;;18.95;68.28;100510.97;5093853;28;20044;-68
2023/09/04 05:58:43;;;;;;;0.60;0.60;;;;;;;19.05;67.83;100515.88;5094816;28;20475;-67
2023/09/04 06:01:12;;;;;;;0.73;0.73;;;;;;;19.14;67.35;100517.44;5094225;28;20121;-66
2023/09/04 06:03:44;;;;;;;1.42;0.85;;;;;;;19.24;67.08;100518.94;5093968;28;20131;-66
2023/09/04 06:06:14;;;;;;;0.90;0.90;;;;;;;19.36;66.53;100521.28;5089423;28;20036;-67
2023/09/04 06:08:44;;;;;;;0.98;0.88;;;;;;;19.50;66.66;100524.41;5092709;28;20044;-68
2023/09/04 06:11:13;;;;;;;0.60;0.60;;;;;;;19.56;66.40;100521.66;5080226;28;20403;-66
2023/09/04 06:13:42;;;;;;;1.50;1.40;;;;;;;19.59;66.25;100521.59;5073620;28;20446;-66
2023/09/04 06:16:11;;;;;;;1.70;0.90;;;;;;;19.69;65.81;100523.06;5073450;28;20041;-65
2023/09/04 06:18:40;;;;;;;0.93;0.85;;;;;;;19.74;65.11;100516.03;5073727;28;20043;-67
2023/09/04 06:21:10;;;;;;;0.50;0.50;;;;;;;19.84;64.40;100521.84;5073079;28;20033;-66
2023/09/04 06:23:39;;;;;;;1.20;1.08;;;;;;;19.84;64.18;100522.69;5073396;28;20064;-66
2023/09/04 06:26:09;;;;;;;0.60;0.60;;;;;;;19.84;64.31;100522.69;5073528;28;20041;-68
2023/09/04 06:28:38;;;;;;;1.20;1.10;;;;;;;19.85;64.03;100526.97;5073630;28;20044;-66
2023/09/04 06:31:07;;;;;;;0.55;0.52;;;;;;;19.82;63.96;100519.28;5078910;28;20050;-66
2023/09/04 06:33:37;;;;;;;0.88;0.82;;;;;;;19.86;64.41;100528.69;5093289;28;20056;-65
2023/09/04 06:36:07;;;;;;;1.20;1.10;;;;;;;19.92;63.90;100530.25;5093835;28;20381;-65
2023/09/04 06:38:37;;;;;;;2.23;1.43;;;;;;;19.93;63.63;100527.66;5094421;28;20044;-65
2023/09/04 06:41:06;;;;;;;1.98;1.35;;;;;;;19.91;63.68;100528.59;5086878;28;20575;-65
2023/09/04 06:43:35;;;;;;;1.27;1.17;;;;;;;20.00;63.78;100533.53;5077226;28;20567;-65
2023/09/04 06:46:04;;;;;;;0.70;0.70;;;;;;;20.04;63.51;100540.31;5077186;28;20094;-66
2023/09/04 06:48:33;;;;;;;0.77;0.70;;;;;;;20.03;63.46;100542.06;5077440;28;20032;-66
2023/09/04 06:51:02;;;;;;;1.98;1.38;;;;;;;20.08;63.40;100537.59;5077110;28;20048;-63
2023/09/04 06:53:31;;;;;;;0.60;0.60;;;;;;;20.16;63.22;100550.38;5077558;28;20144;-66
2023/09/04 06:56:01;;;;;;;0.53;0.53;;;;;;;20.22;62.96;100544.19;5077552;28;20036;-66
2023/09/04 06:58:30;;;;;;;1.95;0.70;;;;;;;20.23;62.97;100540.75;5076983;28;20044;-66
2023/09/04 07:01:02;;;;;;;0.77;0.77;;;;;;;20.31;63.31;100543.97;5077385;28;20048;-65
2023/09/04 07:03:31;;;;;;;0.65;0.65;;;;;;;20.28;62.67;100549.22;5076988;28;20040;-64
2023/09/04 07:06:00;;;;;;;0.73;0.60;;;;;;;20.33;63.19;100552.56;5076986;28;20037;-66
2023/09/04 07:08:30;;;;;;;1.00;0.80;;;;;;;20.46;62.81;100546.16;5089435;28;20040;-66
2023/09/04 07:10:59;;;;;;;1.08;0.85;;;;;;;20.57;62.54;100546.72;5097113;28;20054;-66
2023/09/04 07:13:29;;;;;;;0.80;0.80;;;;;;;20.67;62.12;100549.03;5096992;28;20032;-65
2023/09/04 07:15:58;;;;;;;0.68;0.68;;;;;;;20.66;61.79;100547.31;5097063;28;20047;-65
2023/09/04 07:18:27;;;;;;;1.55;1.13;;;;;;;20.70;61.43;100548.09;5079903;28;20048;-67
2023/09/04 07:20:56;;;;;;;0.77;0.70;;;;;;;20.71;61.43;100552.38;5076273;28;20041;-67
2023/09/04 07:23:24;;;;;;;0.80;0.80;;;;;;;20.73;61.30;100549.75;5095865;28;20509;-66
2023/09/04 07:25:57;;;;;;;1.20;1.10;;;;;;;20.80;61.01;100546.09;5088321;28;20085;-64
2023/09/04 07:28:26;;;;;;;1.25;1.05;;;;;;;20.92;61.23;100544.00;5096645;28;20051;-66
2023/09/04 07:31:14;;;;;;;0.57;0.57;;;;;;;20.97;60.55;100544.69;5096724;28;20491;-65
2023/09/04 07:33:43;;;;;;;0.70;0.65;;;;;;;20.98;60.24;100543.78;5096517;28;20105;-67
2023/09/04 07:36:11;;;;;;;1.75;1.08;;;;;;;21.06;59.45;100544.47;5095954;28;20114;-68
2023/09/04 07:38:40;;;;;;;1.05;0.95;;;;;;;21.08;58.59;100542.66;5096557;28;20040;-67
2023/09/04 07:41:09;;;;;;;1.08;0.98;;;;;;;21.10;58.09;100538.28;5096577;28;20032;-66
2023/09/04 07:43:38;;;;;;;1.30;1.20;;;;;;;21.14;57.67;100547.66;5096796;28;20044;-65
2023/09/04 07:46:08;;;;;;;1.03;0.73;;;;;;;21.16;57.62;100543.25;5094421;28;20036;-65
2023/09/04 07:48:38;;;;;;;1.67;1.55;;;;;;;21.17;57.80;100544.97;5095414;28;20276;-66
2023/09/04 07:51:09;;;;;;;;;;;;;;;21.26;58.12;100539.50;5092953;28;20067;-66
2023/09/04 07:53:58;;;;;;;2.38;1.05;;;;;;;21.32;58.00;100541.94;5096215;28;19973;-66
2023/09/04 07:56:27;;;;;;;;;;;;;;;21.44;58.08;100535.50;5095682;28;20048;-65
2023/09/04 07:59:09;;;;;;;0.65;0.60;;;;;;;21.59;57.80;100542.81;5093324;28;19920;-65
2023/09/04 08:01:39;;;;;;;1.00;0.95;;;;;;;21.63;57.08;100533.16;5076785;28;20064;-65
2023/09/04 08:04:08;;;;;;;1.35;1.25;;;;;;;21.62;56.84;100541.88;5094920;28;20040;-66
2023/09/04 08:06:37;;;;;;;1.08;0.98;;;;;;;21.66;56.20;100527.88;5096097;28;20127;-64
2023/09/04 08:09:06;;;;;;;1.20;1.10;;;;;;;21.68;55.46;100536.47;5096212;28;20028;-67
2023/09/04 08:11:35;;;;;;;2.53;1.02;;;;;;;21.74;54.95;100541.47;5094719;28;20344;-66
2023/09/04 08:14:04;;;;;;;1.25;1.13;;;;;;;21.72;54.97;100535.44;5090969;28;20131;-65
2023/09/04 08:16:33;;;;;;;0.98;0.90;;;;;;;21.80;54.92;100530.88;5085523;28;20048;-66
2023/09/04 08:19:04;;;;;;;1.27;0.77;;;;;;;21.88;55.06;100531.50;5087798;28;20447;-66
2023/09/04 08:21:37;;;;;;;1.10;1.00;;;;;;;21.97;55.05;100537.25;5080833;28;20098;-66
2023/09/04 08:24:06;;;;;;;1.57;1.43;;;;;;;22.03;54.49;100538.78;5075723;28;20051;-66
2023/09/04 08:26:34;;;;;;;;;;;;;;;22.10;54.44;100540.25;5075961;28;20052;-66
2023/09/04 08:29:03;;;;;;;8.95;3.05;;;;;;;22.20;54.47;100551.19;5082888;28;19927;-65
2023/09/04 08:31:32;;;;;;;2.30;1.17;;;;;;;22.19;53.97;100541.72;5084421;28;20146;-66
2023/09/04 08:34:01;;;;;;;1.20;1.08;;;;;;;22.19;53.92;100545.16;5095231;28;20072;-66
2023/09/04 08:36:31;;;;;;;1.08;0.98;;;;;;;22.09;53.50;100543.78;5095776;28;20029;-65
2023/09/04 08:39:00;;;;;;;1.17;1.08;;;;;;;22.07;53.56;100550.78;5095400;28;20067;-66
2023/09/04 08:41:29;;;;;;;1.23;0.80;;;;;;;22.15;53.74;100548.75;5094735;28;20044;-64
2023/09/04 08:43:59;;;;;;;1.73;1.33;;;;;;;22.32;53.72;100551.63;5095375;28;20079;-64
2023/09/04 08:46:30;;;;;;;2.03;1.52;;;;;;;22.34;53.10;100554.19;5094321;28;20036;-66
2023/09/04 08:49:03;;;;;;;1.30;0.90;;;;;;;22.30;53.12;100553.44;5095268;28;20495;-65
2023/09/04 08:51:33;;;;;;;1.77;1.60;;;;;;;22.25;53.32;100555.34;5094315;28;20040;-65
2023/09/04 08:54:04;;;;;;;1.48;1.02;;;;;;;22.30;53.29;100553.44;5095425;28;20044;-63
2023/09/04 08:56:33;;;;;;;1.13;0.95;;;;;;;22.25;53.60;100557.94;5095532;28;20055;-67
2023/09/04 08:59:02;;;;;;;;;;;;;;;22.38;53.50;100566.19;5095671;28;20040;-64
2023/09/04 09:01:34;;;;;;;3.35;1.23;;;;;;;22.36;53.49;100566.22;5085917;28;19925;-66
2023/09/04 09:04:04;;;;;;;1.33;1.23;;;;;;;22.25;53.48;100576.16;5087781;28;20048;-64
2023/09/04 09:06:37;;;;;;;3.50;1.13;;;;;;;22.21;53.32;100569.38;5094847;28;20071;-67
2023/09/04 09:09:08;;;;;;;1.15;0.98;;;;;;;22.29;53.83;100569.13;5092008;28;20127;-65
2023/09/04 09:11:38;;;;;;;2.03;0.73;;;;;;;22.33;53.65;100568.94;5094661;28;20052;-67
2023/09/04 09:14:07;;;;;;;2.60;1.35;;;;;;;22.47;53.88;100574.53;5094672;28;20039;-66
2023/09/04 09:16:37;;;;;;;0.95;0.93;;;;;;;22.54;53.54;100570.78;5094679;28;20052;-67
2023/09/04 09:19:06;;;;;;;1.05;0.95;;;;;;;22.53;53.39;100576.88;5093462;28;20134;-66
2023/09/04 09:21:36;;;;;;;1.45;1.35;;;;;;;22.56;53.13;100565.53;5092644;28;20044;-66
2023/09/04 09:24:11;;;;;;;1.20;0.90;;;;;;;22.61;52.79;100569.69;5094572;28;20040;-65
2023/09/04 09:26:42;;;;;;;0.90;0.90;;;;;;;22.59;52.81;100555.00;5094809;28;20114;-65
2023/09/04 09:29:13;;;;;;;0.85;0.73;;;;;;;22.67;53.20;100540.84;5093572;28;20486;-66
2023/09/04 09:31:45;;;;;;;3.05;1.88;;;;;;;22.82;53.00;100546.41;5094706;28;20109;-68
2023/09/04 09:34:16;;;;;;;0.70;0.70;;;;;;;22.91;52.50;100546.06;5094089;28;20052;-67
2023/09/04 09:36:47;;;;;;;1.50;1.40;;;;;;;22.97;51.98;100530.19;5093539;28;20054;-67
2023/09/04 09:39:16;;;;;;;2.80;0.82;;;;;;;23.02;51.72;100533.47;5094267;28;20055;-67
2023/09/04 09:41:46;;;;;;;;;;;;;;;22.95;51.50;100539.81;5094648;28;20044;-68
2023/09/04 09:44:15;;;;;;;1.77;1.67;;;;;;;23.01;51.37;100531.81;5094132;28;19926;-66
2023/09/04 09:46:44;;;;;;;1.27;0.93;;;;;;;23.04;51.53;100536.88;5093258;28;20115;-66
2023/09/04 09:49:13;;;;;;;1.35;1.20;;;;;;;23.04;51.83;100531.66;5094184;28;20491;-66
2023/09/04 09:51:53;;;;;;;4.13;1.27;;;;;;;22.82;51.25;100530.78;5094069;28;20040;-70
2023/09/04 09:54:35;;;;;;;0.75;0.75;;;;;;;22.94;51.74;100530.34;5094409;28;20051;-67
2023/09/04 09:57:07;;;;;;;1.27;1.17;;;;;;;22.96;51.50;100533.72;5083842;28;20078;-67
2023/09/04 09:59:38;;;;;;;1.05;0.82;;;;;;;22.90;51.54;100533.94;5094213;28;20048;-67
2023/09/04 10:02:07;;;;;;;0.70;0.70;;;;;;;23.01;51.60;100531.81;5093921;28;20055;-66
2023/09/04 10:04:38;;;;;;;1.35;1.10;;;;;;;23.04;51.33;100529.06;5093790;28;20056;-71
2023/09/04 10:07:10;;;;;;;1.00;0.90;;;;;;;23.20;50.96;100532.78;5081154;28;20060;-68
2023/09/04 10:09:44;;;;;;;0.98;0.88;;;;;;;23.23;50.45;100533.50;5073818;28;20101;-72
2023/09/04 10:12:21;;;;;;;2.78;2.00;;;;;;;23.33;50.94;100531.38;5086425;28;20036;-69
2023/09/04 10:14:55;;;;;;;0.88;0.85;;;;;;;23.33;50.49;100539.22;5093394;28;20089;-68
2023/09/04 10:17:35;;;;;;;1.10;1.00;;;;;;;23.33;50.70;100534.00;5092571;28;20097;-68
2023/09/04 10:20:06;;;;;;;1.35;1.17;;;;;;;23.40;50.43;100534.63;5093671;28;20483;-67
2023/09/04 10:22:39;;;;;;;1.38;1.27;;;;;;;23.37;50.31;100530.38;5087341;28;20032;-68
2023/09/04 10:25:14;;;;;;;13.68;7.63;;;;;;;23.53;50.86;100521.06;5076160;28;20535;-70
2023/09/04 10:27:50;;;;;;;5.65;1.92;;;;;;;23.59;50.69;100526.00;5069733;28;20438;-68
2023/09/04 10:30:24;;;;;;;1.05;0.95;;;;;;;23.65;50.23;100512.75;5071782;28;20040;-69
2023/09/04 10:32:56;;;;;;;4.10;1.38;;;;;;;23.69;49.84;100519.53;5073162;28;20056;-69
2023/09/04 10:35:27;;;;;;;1.52;1.00;;;;;;;23.59;49.67;100515.59;5071379;28;20097;-71
2023/09/04 10:37:58;;;;;;;1.10;0.80;;;;;;;23.66;49.85;100511.81;5073685;28;20033;-68
2023/09/04 10:40:29;;;;;;;1.08;1.00;;;;;;;23.46;49.66;100509.19;5073562;28;20057;-68
2023/09/04 10:43:03;;;;;;;1.15;1.05;;;;;;;23.54;49.44;100503.69;5073204;28;20127;-68
2023/09/04 10:45:33;;;;;;;1.70;1.52;;;;;;;23.55;49.09;100506.22;5072266;28;20048;-67
2023/09/04 10:48:02;;;;;;;1.20;1.10;;;;;;;23.71;49.04;100498.59;5073457;28;20076;-66
2023/09/04 10:50:32;;;;;;;1.42;0.95;;;;;;;23.89;49.06;100498.69;5073477;28;20037;-67
2023/09/04 10:53:05;;;;;;;2.47;1.45;;;;;;;23.78;48.76;100500.88;5073429;28;20045;-68
2023/09/04 10:55:37;;;;;;;1.42;1.23;;;;;;;23.97;48.86;100493.97;5072154;28;20045;-66
2023/09/04 10:58:10;;;;;;;0.85;0.85;;;;;;;24.15;48.18;100478.47;5073423;28;20396;-66
2023/09/04 11:00:40;;;;;;;1.65;1.25;;;;;;;24.15;47.92;100488.91;5073075;28;20048;-68
2023/09/04 11:03:20;;;;;;;2.20;1.58;;;;;;;24.29;48.12;100487.41;5073395;28;20127;-67
2023/09/04 11:06:12;;;;;;;0.80;0.80;;;;;;;24.52;48.35;100494.22;5071027;28;20047;-66
2023/09/04 11:08:51;;;;;;;0.75;0.75;;;;;;;24.67;48.15;100488.28;5073263;28;20076;-67
2023/09/04 11:11:24;;;;;;;0.80;0.77;;;;;;;24.84;48.15;100479.72;5073313;28;20569;-67
2023/09/04 11:13:58;;;;;;;1.88;1.58;;;;;;;24.75;47.11;100488.81;5072154;28;20071;-66
2023/09/04 11:16:27;;;;;;;0.73;0.70;;;;;;;24.52;46.73;100487.22;5069729;28;20138;-68
2023/09/04 11:19:06;;;;;;;1.65;1.55;;;;;;;24.51;46.39;100477.72;5072002;28;20110;-68
2023/09/04 11:21:37;;;;;;;1.02;0.82;;;;;;;24.65;46.63;100479.69;5073211;28;20040;-68
2023/09/04 11:24:08;;;;;;;0.60;0.60;;;;;;;24.69;46.73;100470.78;5071833;28;20480;-66
2023/09/04 11:26:38;;;;;;;0.70;0.70;;;;;;;24.70;46.14;100472.50;5075187;28;20059;-67
2023/09/04 11:29:07;;;;;;;1.33;1.23;;;;;;;24.71;46.08;100482.03;5076777;28;20492;-67
2023/09/04 11:31:36;;;;;;;0.57;0.50;;;;;;;24.47;46.02;100475.31;5075599;28;20042;-68
2023/09/04 11:34:05;;;;;;;1.20;0.90;;;;;;;24.48;46.46;100487.44;5074830;28;20060;-67
2023/09/04 11:36:38;;;;;;;1.02;0.90;;;;;;;24.34;46.45;100471.53;5075450;28;20032;-69
2023/09/04 11:39:10;;;;;;;12.10;3.95;;;;;;;24.45;46.72;100472.75;5084685;28;20139;-70
2023/09/04 11:41:39;;;;;;;1.98;1.38;;;;;;;24.38;46.67;100466.13;5075395;28;20062;-70